createdAt,value
2018-07-02T00:00:25.561Z,21.37
2018-07-02T00:02:54.623Z,21.33
2018-07-02T00:05:24.839Z,21.35
2018-07-02T00:07:53.873Z,21.28
2018-07-02T00:10:22.967Z,21.25
2018-07-02T00:12:52.001Z,21.14
2018-07-02T00:15:21.045Z,21.12
2018-07-02T00:17:50.118Z,21.10
2018-07-02T00:20:19.145Z,21.05
2018-07-02T00:22:48.232Z,20.93
2018-07-02T00:25:17.284Z,20.88
2018-07-02T00:27:46.348Z,20.77
2018-07-02T00:30:15.390Z,20.75
2018-07-02T00:32:44.479Z,20.77
2018-07-02T00:35:13.543Z,20.76
2018-07-02T00:37:42.670Z,20.81
2018-07-02T00:40:11.688Z,20.73
2018-07-02T00:42:41.517Z,20.75
2018-07-02T00:45:10.615Z,20.80
2018-07-02T00:47:39.703Z,20.74
2018-07-02T00:50:08.787Z,20.57
2018-07-02T00:52:37.866Z,20.60
2018-07-02T00:55:06.953Z,20.70
2018-07-02T00:57:36.058Z,20.69
2018-07-02T01:00:14.283Z,20.65
2018-07-02T01:02:43.423Z,20.64
2018-07-02T01:05:13.229Z,20.50
2018-07-02T01:07:43.637Z,20.50
2018-07-02T01:10:12.725Z,20.48
2018-07-02T01:12:41.889Z,20.51
2018-07-02T01:15:10.935Z,20.32
2018-07-02T01:17:40.086Z,20.32
2018-07-02T01:20:09.272Z,20.22
2018-07-02T01:22:38.294Z,20.16
2018-07-02T01:25:07.397Z,20.06
2018-07-02T01:27:36.485Z,19.97
2018-07-02T01:30:06.678Z,19.87
2018-07-02T01:32:35.742Z,19.91
2018-07-02T01:35:04.837Z,19.93
2018-07-02T01:37:33.868Z,20.01
2018-07-02T01:40:02.967Z,19.92
2018-07-02T01:42:31.977Z,19.84
2018-07-02T01:45:01.074Z,19.77
2018-07-02T01:47:30.118Z,19.78
2018-07-02T01:49:59.181Z,19.77
2018-07-02T01:52:28.258Z,19.82
2018-07-02T01:54:57.366Z,19.79
2018-07-02T01:57:26.410Z,19.73
2018-07-02T01:59:55.561Z,19.63
2018-07-02T02:02:24.657Z,19.70
2018-07-02T02:04:53.696Z,19.75
2018-07-02T02:07:23.245Z,19.71
2018-07-02T02:09:52.583Z,19.64
2018-07-02T02:12:21.851Z,19.49
2018-07-02T02:14:51.035Z,19.44
2018-07-02T02:17:20.137Z,19.60
2018-07-02T02:19:49.213Z,19.50
2018-07-02T02:22:18.285Z,19.48
2018-07-02T02:24:47.404Z,19.41
2018-07-02T02:27:16.613Z,19.39
2018-07-02T02:29:45.696Z,19.39
2018-07-02T02:32:15.238Z,19.49
2018-07-02T02:34:44.298Z,19.45
2018-07-02T02:37:13.358Z,19.30
2018-07-02T02:39:42.476Z,19.20
2018-07-02T02:42:11.619Z,19.11
2018-07-02T02:44:40.658Z,18.98
2018-07-02T02:47:09.775Z,18.97
2018-07-02T02:49:38.959Z,19.16
2018-07-02T02:52:08.051Z,19.17
2018-07-02T02:54:37.095Z,19.07
2018-07-02T02:57:06.273Z,18.96
2018-07-02T02:59:35.369Z,18.88
2018-07-02T03:02:04.477Z,18.82
2018-07-02T03:04:33.558Z,18.70
2018-07-02T03:07:03.120Z,18.63
2018-07-02T03:09:32.164Z,18.52
2018-07-02T03:12:01.264Z,18.55
2018-07-02T03:14:30.654Z,18.57
2018-07-02T03:16:59.725Z,18.59
2018-07-02T03:19:29.240Z,18.69
2018-07-02T03:21:58.354Z,18.54
2018-07-02T03:24:27.450Z,18.57
2018-07-02T03:26:56.807Z,18.55
2018-07-02T03:29:26.000Z,18.55
2018-07-02T03:31:55.058Z,18.36
2018-07-02T03:34:24.137Z,18.44
2018-07-02T03:36:53.190Z,18.35
2018-07-02T03:39:22.300Z,18.32
2018-07-02T03:41:51.386Z,18.47
2018-07-02T03:44:20.469Z,18.32
2018-07-02T03:46:49.524Z,18.36
2018-07-02T03:49:18.611Z,18.32
2018-07-02T03:51:47.681Z,18.21
2018-07-02T03:54:16.777Z,18.23
2018-07-02T03:56:45.874Z,18.23
2018-07-02T03:59:15.076Z,18.18
2018-07-02T04:01:44.151Z,18.22
2018-07-02T04:04:13.265Z,18.17
2018-07-02T04:06:42.492Z,18.26
2018-07-02T04:09:13.756Z,18.37
2018-07-02T04:11:42.896Z,18.37
2018-07-02T04:14:11.943Z,18.15
2018-07-02T04:16:41.139Z,18.16
2018-07-02T04:19:12.057Z,18.17
2018-07-02T04:21:42.441Z,18.23
2018-07-02T04:24:11.648Z,18.21
2018-07-02T04:26:41.796Z,18.32
2018-07-02T04:29:11.513Z,18.43
2018-07-02T04:31:40.580Z,18.48
2018-07-02T04:34:09.703Z,18.45
2018-07-02T04:36:39.204Z,18.48
2018-07-02T04:39:08.844Z,18.48
2018-07-02T04:41:38.195Z,18.47
2018-07-02T04:44:08.178Z,18.51
2018-07-02T04:46:37.428Z,18.59
2018-07-02T04:49:06.533Z,18.57
2018-07-02T04:51:35.673Z,18.56
2018-07-02T04:54:04.757Z,18.63
2018-07-02T04:56:33.929Z,18.63
2018-07-02T04:59:03.001Z,18.70
2018-07-02T05:01:32.082Z,18.71
2018-07-02T05:04:01.241Z,18.36
2018-07-02T05:06:30.300Z,18.87
2018-07-02T05:08:59.506Z,18.87
2018-07-02T05:11:28.699Z,18.93
2018-07-02T05:13:57.808Z,19.01
2018-07-02T05:16:26.925Z,18.93
2018-07-02T05:18:56.005Z,18.92
2018-07-02T05:21:25.075Z,19.01
2018-07-02T05:23:54.174Z,19.10
2018-07-02T05:26:23.227Z,19.06
2018-07-02T05:28:52.318Z,19.12
2018-07-02T05:31:21.409Z,19.18
2018-07-02T05:33:50.474Z,19.26
2018-07-02T05:36:19.571Z,19.31
2018-07-02T05:38:48.698Z,19.38
2018-07-02T05:41:17.809Z,19.41
2018-07-02T05:43:46.926Z,19.49
2018-07-02T05:46:16.022Z,19.56
2018-07-02T05:48:45.112Z,19.46
2018-07-02T05:51:14.420Z,19.50
2018-07-02T05:53:43.569Z,19.51
2018-07-02T05:56:12.721Z,19.62
2018-07-02T05:58:41.894Z,19.77
2018-07-02T06:01:11.028Z,19.85
2018-07-02T06:03:40.179Z,19.83
2018-07-02T06:06:09.214Z,19.94
2018-07-02T06:08:38.916Z,20.03
2018-07-02T06:11:08.017Z,20.09
2018-07-02T06:13:37.121Z,20.18
2018-07-02T06:16:06.273Z,20.30
2018-07-02T06:18:35.368Z,20.45
2018-07-02T06:21:04.669Z,20.50
2018-07-02T06:23:33.789Z,20.56
2018-07-02T06:26:02.880Z,20.62
2018-07-02T06:28:31.957Z,20.76
2018-07-02T06:31:01.068Z,20.87
2018-07-02T06:33:30.145Z,21.00
2018-07-02T06:35:59.465Z,21.07
2018-07-02T06:38:28.582Z,21.02
2018-07-02T06:40:57.756Z,21.16
2018-07-02T06:43:26.902Z,21.28
2018-07-02T06:45:56.010Z,21.35
2018-07-02T06:48:25.157Z,21.29
2018-07-02T06:50:54.832Z,21.23
2018-07-02T06:53:23.888Z,21.30
2018-07-02T06:55:52.980Z,21.39
2018-07-02T06:58:22.051Z,21.53
2018-07-02T07:00:51.153Z,21.60
2018-07-02T07:03:20.308Z,21.76
2018-07-02T07:05:49.385Z,21.82
2018-07-02T07:08:18.807Z,21.93
2018-07-02T07:10:47.890Z,22.04
2018-07-02T07:13:17.112Z,22.05
2018-07-02T07:15:46.534Z,22.09
2018-07-02T07:18:15.731Z,22.12
2018-07-02T07:20:44.834Z,22.54
2018-07-02T07:23:14.568Z,22.62
2018-07-02T07:25:43.738Z,22.71
2018-07-02T07:28:12.837Z,22.77
2018-07-02T07:30:42.537Z,22.71
2018-07-02T07:33:11.605Z,22.78
2018-07-02T07:35:40.935Z,22.77
2018-07-02T07:38:10.074Z,22.83
2018-07-02T07:40:39.194Z,22.95
2018-07-02T07:43:08.265Z,23.12
2018-07-02T07:45:37.395Z,23.20
2018-07-02T07:48:06.658Z,23.09
2018-07-02T07:50:35.733Z,23.45
2018-07-02T07:53:05.525Z,23.59
2018-07-02T07:55:34.709Z,23.61
2018-07-02T07:58:03.995Z,23.73
2018-07-02T08:00:33.059Z,23.81
2018-07-02T08:03:02.139Z,24.00
2018-07-02T08:05:31.161Z,23.99
2018-07-02T08:08:00.318Z,24.05
2018-07-02T08:10:29.480Z,24.08
2018-07-02T08:12:58.497Z,24.16
2018-07-02T08:15:27.597Z,24.31
2018-07-02T08:17:57.255Z,24.49
2018-07-02T08:20:26.365Z,24.50
2018-07-02T08:22:55.799Z,24.57
2018-07-02T08:25:24.941Z,24.58
2018-07-02T08:27:54.105Z,24.46
2018-07-02T08:30:23.217Z,24.60
2018-07-02T08:32:52.269Z,24.58
2018-07-02T08:35:21.330Z,24.61
2018-07-02T08:37:50.502Z,24.67
2018-07-02T08:40:19.615Z,24.70
2018-07-02T08:42:48.778Z,24.65
2018-07-02T08:45:17.889Z,24.78
2018-07-02T08:47:46.939Z,24.99
2018-07-02T08:50:16.036Z,25.16
2018-07-02T08:52:45.188Z,25.11
2018-07-02T08:55:14.312Z,25.11
2018-07-02T08:57:43.412Z,25.14
2018-07-02T09:00:12.594Z,25.10
2018-07-02T09:02:41.741Z,25.21
2018-07-02T09:05:10.873Z,25.30
2018-07-02T09:07:40.013Z,25.39
2018-07-02T09:10:09.173Z,25.27
2018-07-02T09:12:38.298Z,25.43
2018-07-02T09:15:07.482Z,25.52
2018-07-02T09:17:36.604Z,25.50
2018-07-02T09:20:05.799Z,25.38
2018-07-02T09:22:34.897Z,25.46
2018-07-02T09:25:04.502Z,25.72
2018-07-02T09:27:33.761Z,25.89
2018-07-02T09:30:03.086Z,25.89
2018-07-02T09:32:32.873Z,25.90
2018-07-02T09:35:01.899Z,25.86
2018-07-02T09:37:31.884Z,25.76
2018-07-02T09:40:01.045Z,26.05
2018-07-02T09:42:30.217Z,26.16
2018-07-02T09:44:59.306Z,26.16
2018-07-02T09:47:28.414Z,26.33
2018-07-02T09:49:57.950Z,26.50
2018-07-02T09:52:27.081Z,26.44
2018-07-02T09:54:56.254Z,26.51
2018-07-02T09:57:25.366Z,26.60
2018-07-02T09:59:54.505Z,26.64
2018-07-02T10:02:23.709Z,26.68
2018-07-02T10:04:53.235Z,26.76
2018-07-02T10:07:22.370Z,26.71
2018-07-02T10:09:51.500Z,26.94
2018-07-02T10:12:20.849Z,26.95
2018-07-02T10:14:50.053Z,26.99
2018-07-02T10:17:19.289Z,27.12
2018-07-02T10:19:48.337Z,27.18
2018-07-02T10:22:17.487Z,27.18
2018-07-02T10:24:46.675Z,26.96
2018-07-02T10:27:15.810Z,27.13
2018-07-02T10:29:45.557Z,27.21
2018-07-02T10:32:14.845Z,27.30
2018-07-02T10:34:43.913Z,27.52
2018-07-02T10:37:13.042Z,27.46
2018-07-02T10:39:42.215Z,27.58
2018-07-02T10:42:11.230Z,26.89
2018-07-02T10:44:40.429Z,27.75
2018-07-02T10:47:09.470Z,27.83
2018-07-02T10:49:38.594Z,27.86
2018-07-02T10:52:07.765Z,27.90
2018-07-02T10:54:36.873Z,28.07
2018-07-02T10:57:06.005Z,28.10
2018-07-02T10:59:35.374Z,28.22
2018-07-02T11:02:04.509Z,28.11
2018-07-02T11:04:33.669Z,27.94
2018-07-02T11:07:02.773Z,28.11
2018-07-02T11:09:31.857Z,28.29
2018-07-02T11:12:01.001Z,28.34
2018-07-02T11:14:30.201Z,28.37
2018-07-02T11:16:59.290Z,28.33
2018-07-02T11:19:29.015Z,28.39
2018-07-02T11:21:58.177Z,28.36
2018-07-02T11:24:27.324Z,28.65
2018-07-02T11:26:56.461Z,28.82
2018-07-02T11:29:25.534Z,28.79
2018-07-02T11:31:54.775Z,28.85
2018-07-02T11:34:23.893Z,29.20
2018-07-02T11:36:52.980Z,29.41
2018-07-02T11:39:22.170Z,29.30
2018-07-02T11:41:51.435Z,29.14
2018-07-02T11:44:20.522Z,29.30
2018-07-02T11:46:49.633Z,29.40
2018-07-02T11:49:18.817Z,29.39
2018-07-02T11:51:47.964Z,29.49
2018-07-02T11:54:17.153Z,29.59
2018-07-02T11:56:46.313Z,29.73
2018-07-02T11:59:15.390Z,29.72
2018-07-02T12:01:44.467Z,29.71
2018-07-02T12:04:13.612Z,29.79
2018-07-02T12:06:42.776Z,29.86
2018-07-02T12:09:12.687Z,29.82
2018-07-02T12:11:42.396Z,29.92
2018-07-02T12:14:11.850Z,30.01
2018-07-02T12:16:41.021Z,30.24
2018-07-02T12:19:10.117Z,30.41
2018-07-02T12:21:39.252Z,30.42
2018-07-02T12:24:08.437Z,30.49
2018-07-02T12:26:37.560Z,30.50
2018-07-02T12:29:06.690Z,30.73
2018-07-02T12:31:35.814Z,30.67
2018-07-02T12:34:05.125Z,30.81
2018-07-02T12:36:34.170Z,31.00
2018-07-02T12:39:03.316Z,30.84
2018-07-02T12:41:32.431Z,30.78
2018-07-02T12:44:01.558Z,31.06
2018-07-02T12:46:30.632Z,31.05
2018-07-02T12:49:00.272Z,31.19
2018-07-02T12:51:30.278Z,31.20
2018-07-02T12:53:59.453Z,31.24
2018-07-02T12:56:28.565Z,31.51
2018-07-02T12:58:57.676Z,31.46
2018-07-02T13:01:26.833Z,31.44
2018-07-02T13:03:55.953Z,31.62
2018-07-02T13:06:25.049Z,31.74
2018-07-02T13:08:54.325Z,31.67
2018-07-02T13:11:23.478Z,32.01
2018-07-02T13:13:53.262Z,32.18
2018-07-02T13:16:22.391Z,32.33
2018-07-02T13:18:51.503Z,32.18
2018-07-02T13:21:20.682Z,32.16
2018-07-02T13:23:49.808Z,32.27
2018-07-02T13:26:18.956Z,32.21
2018-07-02T13:28:48.153Z,32.25
2018-07-02T13:31:17.457Z,32.71
2018-07-02T13:33:46.750Z,32.93
2018-07-02T13:36:16.495Z,32.57
2018-07-02T13:38:45.803Z,32.84
2018-07-02T13:41:14.874Z,33.14
2018-07-02T13:43:43.925Z,32.82
2018-07-02T13:46:13.047Z,32.75
2018-07-02T13:48:42.972Z,32.33
2018-07-02T13:51:12.336Z,32.56
2018-07-02T13:53:41.365Z,32.54
2018-07-02T13:56:11.358Z,32.83
2018-07-02T13:58:40.700Z,32.93
2018-07-02T14:01:09.994Z,32.81
2018-07-02T14:03:39.138Z,33.09
2018-07-02T14:06:08.383Z,32.94
2018-07-02T14:08:37.545Z,32.77
2018-07-02T14:11:06.763Z,33.17
2018-07-02T14:13:35.936Z,33.35
2018-07-02T14:16:05.170Z,33.77
2018-07-02T14:18:34.412Z,33.77
2018-07-02T14:21:03.472Z,33.41
2018-07-02T14:23:32.680Z,33.71
2018-07-02T14:26:01.750Z,34.15
2018-07-02T14:28:30.841Z,34.33
2018-07-02T14:30:59.929Z,34.30
2018-07-02T14:33:29.077Z,34.46
2018-07-02T14:35:58.449Z,34.63
2018-07-02T14:38:27.613Z,33.76
2018-07-02T14:40:56.693Z,33.94
2018-07-02T14:43:26.051Z,34.34
2018-07-02T14:45:55.191Z,34.93
2018-07-02T14:48:24.330Z,35.36
2018-07-02T14:50:54.251Z,35.19
2018-07-02T14:53:23.323Z,35.02
2018-07-02T14:55:52.426Z,35.44
2018-07-02T14:58:21.558Z,35.56
2018-07-02T15:00:50.611Z,35.67
2018-07-02T15:03:19.835Z,35.82
2018-07-02T15:05:48.894Z,35.76
2018-07-02T15:08:18.007Z,36.17
2018-07-02T15:10:47.446Z,35.57
2018-07-02T15:13:16.601Z,34.99
2018-07-02T15:15:45.758Z,34.80
2018-07-02T15:18:15.359Z,35.29
2018-07-02T15:20:44.520Z,34.92
2018-07-02T15:23:14.142Z,35.68
2018-07-02T15:25:43.315Z,36.12
2018-07-02T15:28:12.772Z,36.14
2018-07-02T15:30:42.010Z,36.16
2018-07-02T15:33:11.118Z,35.37
2018-07-02T15:35:40.265Z,34.87
2018-07-02T15:38:09.424Z,35.58
2018-07-02T15:40:38.618Z,36.54
2018-07-02T15:43:07.897Z,37.10
2018-07-02T15:45:37.067Z,37.38
2018-07-02T15:48:06.601Z,37.22
2018-07-02T15:50:35.874Z,37.18
2018-07-02T15:53:05.123Z,37.66
2018-07-02T15:55:34.340Z,37.51
2018-07-02T15:58:03.608Z,37.71
2018-07-02T16:00:32.797Z,37.52
2018-07-02T16:03:01.902Z,37.55
2018-07-02T16:05:31.792Z,36.49
2018-07-02T16:08:00.914Z,35.95
2018-07-02T16:10:30.024Z,35.79
2018-07-02T16:12:59.182Z,36.69
2018-07-02T16:15:28.293Z,36.64
2018-07-02T16:17:57.327Z,36.43
2018-07-02T16:20:26.397Z,36.56
2018-07-02T16:22:55.595Z,37.22
2018-07-02T16:25:24.652Z,37.62
2018-07-02T16:27:53.726Z,37.69
2018-07-02T16:30:22.831Z,38.05
2018-07-02T16:32:51.982Z,37.82
2018-07-02T16:35:21.124Z,38.14
2018-07-02T16:37:50.329Z,38.34
2018-07-02T16:40:19.479Z,38.02
2018-07-02T16:42:49.243Z,38.43
2018-07-02T16:45:18.370Z,38.59
2018-07-02T16:47:47.762Z,38.70
2018-07-02T16:50:16.829Z,38.64
2018-07-02T16:52:46.039Z,38.07
2018-07-02T16:55:15.135Z,38.36
2018-07-02T16:57:44.238Z,38.15
2018-07-02T17:00:13.427Z,37.92
2018-07-02T17:02:42.521Z,37.16
2018-07-02T17:05:11.633Z,36.43
2018-07-02T17:07:40.753Z,36.06
2018-07-02T17:10:09.946Z,35.68
2018-07-02T17:12:39.083Z,34.63
2018-07-02T17:15:08.183Z,34.34
2018-07-02T17:17:37.359Z,33.94
2018-07-02T17:20:07.238Z,33.16
2018-07-02T17:22:36.592Z,32.60
2018-07-02T17:25:05.729Z,32.31
2018-07-02T17:27:34.844Z,32.50
2018-07-02T17:30:04.224Z,32.71
2018-07-02T17:32:33.368Z,32.72
2018-07-02T17:35:02.515Z,32.50
2018-07-02T17:37:31.689Z,32.31
2018-07-02T17:40:00.860Z,31.99
2018-07-02T17:42:29.954Z,31.72
2018-07-02T17:44:59.146Z,31.34
2018-07-02T17:47:28.205Z,31.54
2018-07-02T17:49:57.325Z,31.77
2018-07-02T17:52:26.433Z,31.80
2018-07-02T17:54:55.569Z,31.67
2018-07-02T17:57:24.704Z,31.70
2018-07-02T17:59:53.823Z,31.70
2018-07-02T18:02:24.109Z,31.47
2018-07-02T18:04:53.416Z,31.36
2018-07-02T18:07:22.645Z,30.94
2018-07-02T18:09:51.781Z,30.81
2018-07-02T18:12:21.555Z,30.82
2018-07-02T18:14:50.653Z,30.93
2018-07-02T18:17:20.070Z,30.97
2018-07-02T18:19:49.224Z,30.99
2018-07-02T18:22:18.316Z,30.92
2018-07-02T18:24:47.354Z,30.97
2018-07-02T18:27:16.486Z,30.97
2018-07-02T18:29:45.642Z,30.86
2018-07-02T18:32:14.837Z,30.64
2018-07-02T18:34:43.857Z,30.18
2018-07-02T18:37:12.953Z,29.81
2018-07-02T18:39:42.018Z,29.95
2018-07-02T18:42:11.198Z,29.91
2018-07-02T18:44:40.378Z,30.10
2018-07-02T18:47:09.491Z,30.16
2018-07-02T18:49:38.664Z,29.94
2018-07-02T18:52:07.789Z,29.83
2018-07-02T18:54:36.864Z,29.83
2018-07-02T18:57:07.095Z,29.86
2018-07-02T18:59:36.362Z,29.81
2018-07-02T19:02:05.850Z,29.78
2018-07-02T19:04:35.056Z,29.79
2018-07-02T19:07:04.130Z,29.81
2018-07-02T19:09:34.208Z,29.69
2018-07-02T19:12:03.671Z,29.33
2018-07-02T19:14:32.858Z,29.56
2018-07-02T19:17:01.977Z,27.80
2018-07-02T19:19:31.106Z,29.16
2018-07-02T19:22:00.285Z,29.20
2018-07-02T19:24:29.389Z,29.23
2018-07-02T19:26:58.494Z,28.67
2018-07-02T19:29:27.824Z,28.53
2018-07-02T19:31:57.603Z,28.65
2018-07-02T19:34:26.999Z,28.84
2018-07-02T19:36:57.530Z,28.93
2018-07-02T19:39:26.637Z,28.69
2018-07-02T19:41:55.978Z,28.62
2018-07-02T19:44:25.137Z,28.61
2018-07-02T19:46:54.674Z,28.66
2018-07-02T19:49:23.729Z,28.70
2018-07-02T19:51:53.032Z,28.60
2018-07-02T19:54:22.235Z,28.70
2018-07-02T19:56:52.068Z,28.55
2018-07-02T19:59:21.229Z,28.33
2018-07-02T20:01:50.334Z,28.25
2018-07-02T20:04:19.458Z,28.00
2018-07-02T20:06:48.587Z,28.10
2018-07-02T20:09:17.652Z,27.99
2018-07-02T20:11:46.809Z,27.71
2018-07-02T20:14:15.866Z,27.56
2018-07-02T20:16:45.246Z,27.51
2018-07-02T20:19:14.341Z,27.53
2018-07-02T20:21:43.404Z,27.50
2018-07-02T20:24:12.473Z,27.50
2018-07-02T20:26:41.622Z,27.44
2018-07-02T20:29:11.309Z,27.34
2018-07-02T20:31:41.533Z,27.21
2018-07-02T20:34:10.581Z,26.96
2018-07-02T20:36:39.694Z,26.87
2018-07-02T20:39:10.667Z,26.64
2018-07-02T20:41:39.754Z,26.47
2018-07-02T20:44:08.839Z,26.38
2018-07-02T20:46:37.925Z,26.23
2018-07-02T20:49:07.006Z,26.32
2018-07-02T20:51:36.058Z,26.32
2018-07-02T20:54:05.232Z,26.16
2018-07-02T20:56:34.397Z,26.06
2018-07-02T20:59:03.873Z,24.63
2018-07-02T21:01:33.336Z,25.92
2018-07-02T21:04:02.937Z,25.78
2018-07-02T21:06:32.085Z,25.76
2018-07-02T21:09:01.272Z,25.68
2018-07-02T21:11:30.407Z,25.60
2018-07-02T21:13:59.480Z,25.46
2018-07-02T21:16:28.625Z,25.33
2018-07-02T21:18:57.697Z,25.32
2018-07-02T21:21:26.809Z,25.22
2018-07-02T21:23:55.922Z,25.09
2018-07-02T21:26:25.052Z,24.89
2018-07-02T21:28:54.105Z,24.88
2018-07-02T21:31:23.434Z,24.82
2018-07-02T21:33:52.501Z,24.71
2018-07-02T21:36:21.727Z,24.68
2018-07-02T21:38:50.791Z,24.55
2018-07-02T21:41:20.210Z,24.37
2018-07-02T21:43:49.602Z,24.37
2018-07-02T21:46:20.230Z,23.73
2018-07-02T21:48:49.339Z,24.27
2018-07-02T21:51:18.421Z,24.06
2018-07-02T21:53:47.469Z,23.85
2018-07-02T21:56:16.610Z,23.83
2018-07-02T21:58:45.719Z,23.90
2018-07-02T22:01:19.642Z,23.93
2018-07-02T22:03:48.933Z,23.77
2018-07-02T22:06:18.477Z,23.62
2018-07-02T22:08:47.645Z,23.55
2018-07-02T22:11:17.371Z,23.40
2018-07-02T22:13:46.501Z,23.26
2018-07-02T22:16:15.802Z,23.28
2018-07-02T22:18:44.889Z,23.45
2018-07-02T22:21:14.019Z,22.74
2018-07-02T22:23:43.187Z,23.43
2018-07-02T22:26:12.300Z,23.22
2018-07-02T22:28:41.878Z,23.11
2018-07-02T22:31:11.085Z,23.00
2018-07-02T22:33:40.266Z,22.82
2018-07-02T22:36:09.408Z,22.86
2018-07-02T22:38:38.507Z,22.72
2018-07-02T22:41:07.710Z,22.58
2018-07-02T22:43:36.802Z,22.65
2018-07-02T22:46:05.887Z,22.60
2018-07-02T22:48:34.949Z,22.51
2018-07-02T22:51:04.043Z,22.34
2018-07-02T22:53:33.138Z,22.62
2018-07-02T22:56:04.397Z,22.41
2018-07-02T22:58:33.444Z,22.04
2018-07-02T23:01:02.924Z,22.00
2018-07-02T23:03:32.085Z,21.94
2018-07-02T23:06:01.127Z,21.59
2018-07-02T23:08:30.182Z,21.63
2018-07-02T23:10:59.210Z,21.68
2018-07-02T23:13:28.305Z,21.89
2018-07-02T23:16:05.185Z,21.94
2018-07-02T23:18:34.722Z,21.75
2018-07-02T23:21:03.766Z,21.86
2018-07-02T23:23:32.858Z,21.85
2018-07-02T23:26:01.891Z,21.86
2018-07-02T23:28:30.934Z,21.80
2018-07-02T23:31:00.012Z,21.76
2018-07-02T23:33:29.024Z,21.94
2018-07-02T23:35:58.074Z,21.69
2018-07-02T23:38:27.145Z,21.79
2018-07-02T23:40:56.289Z,21.74
2018-07-02T23:43:25.337Z,21.75
2018-07-02T23:45:54.413Z,21.59
2018-07-02T23:48:23.451Z,21.41
2018-07-02T23:50:52.510Z,21.43
2018-07-02T23:53:21.635Z,21.45
2018-07-02T23:55:50.650Z,21.52
2018-07-02T23:58:19.725Z,21.52
